Aurora, MO

12:15 AM CDT on August 28, 2014 (GMT -0500)
KMOMONET2 | Change Station
CLOSE
Current Station
Personal Weather Station
Location: Monett, MO
Elevation: 1306 ft
Nearby Weather Stations

Elev 1306 ft 36.93 °N, 93.93 °W | Updated 26 seconds ago

Partly Cloudy
Partly Cloudy
78.6 °F
Feels Like 81 °F
N
3.6
Wind Variable Wind from ESE
Gusts 6.9 mph

Today
High -- | Low -- °F
--% Chance of Precip.
Yesterday
High -- | Low -- °F
Precip. -- in
6:42 AM 7:49 PM
Waxing Crescent, 6% visible
Pressure 30.05 in
Visibility 10.0 miles
Clouds Scattered Clouds 6500 ft
Mostly Cloudy 8500 ft
Heat Index 81 °F
Dew Point 70 °F
Humidity 75%
Rainfall 0.00 in
Snow Depth Not available.
UV 0 out of 12
Pollen 10.90 out of 12
Air Quality Not available.
Flu Activity Not available.
METAR KHFJ 280455Z AUTO 17010KT 10SM SCT065 BKN085 25/20 A3005 RMK AO2

More Conditions Fewer Conditions

Pressure 30.05 in
Visibility 10.0 miles
Clouds Scattered Clouds 6500 ft
Mostly Cloudy 8500 ft
Heat Index 81 °F
Dew Point 70 °F
Humidity 75%
Rainfall 0.00 in
Snow Depth Not available.
UV 0 out of 12
Pollen 10.90 out of 12
Air Quality Not available.
Flu Activity Not available.
METAR KHFJ 280455Z AUTO 17010KT 10SM SCT065 BKN085 25/20 A3005 RMK AO2

More Conditions Fewer Conditions

10-Day Weather Forecast

Almanac

Astronomy

Aug. 28, 2014 Rise Set
Actual Time 6:42 AM CDT 7:49 PM CDT
Civil Twilight 6:15 AM CDT 8:15 PM CDT
Nautical Twilight 5:43 AM CDT 8:47 PM CDT
Astronomical Twilight 5:10 AM CDT 9:20 PM CDT
Moon 9:30 AM CDT 9:19 PM CDT
Length of Visible Light 13h 59m
Length of Day
13h 06m
Tomorrow will be 2m 14s shorter.
Waxing Crescent, 6% of the Moon is Illuminated
Today
Waxing Crescent
Sep 2
First Quarter
Sep 8
Full
Sep 15
Last Quarter
Sep 24
New

Today's Extremes

State Highs State Lows

Community

WunderPhotos

Upload Photos

1,747,908 photos uploaded!

Nearby

Snow Depth

Station Depth Elevation
No new snow has been reported.

Earthquake Activity

City Distance Mag. Time & Date
No recent earthquake activity has been reported nearby.
Minimum magnitude displayed is 2.5.

Coastal Water Temperatures

Place Temperature
No Stations Reporting

Nearby Weather Stations